sensor_id;sensor_type;location;lat;lon;timestamp;P1;durP1;ratioP1;P2;durP2;ratioP2
14013;SDS011;49110;52.584;13.408;2023-04-24T00:00:46;4.57;;;4.13;;
14013;SDS011;49110;52.584;13.408;2023-04-24T00:01:46;4.70;;;4.30;;
14013;SDS011;49110;52.584;13.408;2023-04-24T00:02:47;4.90;;;4.50;;
14013;SDS011;49110;52.584;13.408;2023-04-24T00:03:47;4.97;;;4.50;;
14013;SDS011;49110;52.584;13.408;2023-04-24T00:04:48;4.80;;;4.40;;
14013;SDS011;49110;52.584;13.408;2023-04-24T00:05:49;5.63;;;4.17;;
14013;SDS011;49110;52.584;13.408;2023-04-24T00:06:49;8.33;;;4.80;;
14013;SDS011;49110;52.584;13.408;2023-04-24T00:07:53;4.60;;;4.20;;
14013;SDS011;49110;52.584;13.408;2023-04-24T00:08:58;4.53;;;4.13;;
14013;SDS011;49110;52.584;13.408;2023-04-24T00:10:02;4.70;;;4.30;;
14013;SDS011;49110;52.584;13.408;2023-04-24T00:11:03;4.80;;;4.00;;
14013;SDS011;49110;52.584;13.408;2023-04-24T00:12:03;6.10;;;4.27;;
14013;SDS011;49110;52.584;13.408;2023-04-24T00:13:04;4.30;;;4.00;;
14013;SDS011;49110;52.584;13.408;2023-04-24T00:14:05;4.90;;;4.50;;
14013;SDS011;49110;52.584;13.408;2023-04-24T00:15:05;4.57;;;4.27;;
14013;SDS011;49110;52.584;13.408;2023-04-24T00:16:07;5.47;;;4.70;;
14013;SDS011;49110;52.584;13.408;2023-04-24T00:17:07;6.07;;;4.40;;
14013;SDS011;49110;52.584;13.408;2023-04-24T00:18:07;4.97;;;4.57;;
14013;SDS011;49110;52.584;13.408;2023-04-24T00:19:08;4.20;;;3.90;;
14013;SDS011;49110;52.584;13.408;2023-04-24T00:20:09;5.10;;;4.17;;
14013;SDS011;49110;52.584;13.408;2023-04-24T00:21:10;5.10;;;4.70;;
14013;SDS011;49110;52.584;13.408;2023-04-24T00:22:11;4.80;;;4.40;;
14013;SDS011;49110;52.584;13.408;2023-04-24T00:23:13;4.53;;;4.20;;
14013;SDS011;49110;52.584;13.408;2023-04-24T00:24:13;4.70;;;4.30;;
14013;SDS011;49110;52.584;13.408;2023-04-24T00:25:14;4.20;;;3.90;;
14013;SDS011;49110;52.584;13.408;2023-04-24T00:26:14;4.80;;;4.40;;
14013;SDS011;49110;52.584;13.408;2023-04-24T00:27:15;4.70;;;4.13;;
14013;SDS011;49110;52.584;13.408;2023-04-24T00:28:15;4.70;;;4.30;;
14013;SDS011;49110;52.584;13.408;2023-04-24T00:29:16;4.27;;;3.97;;
14013;SDS011;49110;52.584;13.408;2023-04-24T00:30:16;5.20;;;4.10;;
14013;SDS011;49110;52.584;13.408;2023-04-24T00:31:17;4.67;;;4.13;;
14013;SDS011;49110;52.584;13.408;2023-04-24T00:32:17;3.90;;;3.60;;
14013;SDS011;49110;52.584;13.408;2023-04-24T00:33:18;4.50;;;4.20;;
14013;SDS011;49110;52.584;13.408;2023-04-24T00:34:19;4.63;;;4.23;;
14013;SDS011;49110;52.584;13.408;2023-04-24T00:35:19;5.00;;;4.60;;
14013;SDS011;49110;52.584;13.408;2023-04-24T00:36:20;4.50;;;4.10;;
14013;SDS011;49110;52.584;13.408;2023-04-24T00:37:20;4.60;;;4.20;;
14013;SDS011;49110;52.584;13.408;2023-04-24T00:38:21;4.40;;;4.00;;
14013;SDS011;49110;52.584;13.408;2023-04-24T00:39:22;4.30;;;4.00;;
14013;SDS011;49110;52.584;13.408;2023-04-24T00:40:23;4.60;;;4.20;;
14013;SDS011;49110;52.584;13.408;2023-04-24T00:41:26;4.80;;;4.40;;
14013;SDS011;49110;52.584;13.408;2023-04-24T00:42:27;4.80;;;4.40;;
14013;SDS011;49110;52.584;13.408;2023-04-24T00:43:27;4.33;;;4.03;;
14013;SDS011;49110;52.584;13.408;2023-04-24T00:44:28;4.33;;;4.03;;
14013;SDS011;49110;52.584;13.408;2023-04-24T00:45:28;4.90;;;4.40;;
14013;SDS011;49110;52.584;13.408;2023-04-24T00:46:31;5.57;;;4.73;;
14013;SDS011;49110;52.584;13.408;2023-04-24T00:47:32;5.07;;;4.67;;
14013;SDS011;49110;52.584;13.408;2023-04-24T00:48:33;5.63;;;4.40;;
14013;SDS011;49110;52.584;13.408;2023-04-24T00:49:34;5.10;;;4.70;;
14013;SDS011;49110;52.584;13.408;2023-04-24T00:50:38;4.80;;;4.47;;
14013;SDS011;49110;52.584;13.408;2023-04-24T00:51:39;4.40;;;4.10;;
14013;SDS011;49110;52.584;13.408;2023-04-24T00:52:40;5.13;;;4.63;;
14013;SDS011;49110;52.584;13.408;2023-04-24T00:53:41;5.33;;;4.83;;
14013;SDS011;49110;52.584;13.408;2023-04-24T00:54:41;6.47;;;4.87;;
14013;SDS011;49110;52.584;13.408;2023-04-24T00:55:42;5.40;;;4.90;;
14013;SDS011;49110;52.584;13.408;2023-04-24T00:56:42;7.13;;;5.57;;
14013;SDS011;49110;52.584;13.408;2023-04-24T00:57:44;6.03;;;5.43;;
14013;SDS011;49110;52.584;13.408;2023-04-24T00:58:46;6.10;;;5.53;;
14013;SDS011;49110;52.584;13.408;2023-04-24T00:59:47;5.63;;;5.13;;
14013;SDS011;49110;52.584;13.408;2023-04-24T01:00:48;5.80;;;5.30;;
14013;SDS011;49110;52.584;13.408;2023-04-24T01:01:52;5.90;;;5.30;;
14013;SDS011;49110;52.584;13.408;2023-04-24T01:02:53;6.20;;;5.20;;
14013;SDS011;49110;52.584;13.408;2023-04-24T01:03:55;6.50;;;5.90;;
14013;SDS011;49110;52.584;13.408;2023-04-24T01:04:57;6.00;;;5.37;;
14013;SDS011;49110;52.584;13.408;2023-04-24T01:05:58;6.17;;;5.57;;
14013;SDS011;49110;52.584;13.408;2023-04-24T01:06:58;6.00;;;5.40;;
14013;SDS011;49110;52.584;13.408;2023-04-24T01:07:59;5.80;;;5.30;;
14013;SDS011;49110;52.584;13.408;2023-04-24T01:09:01;5.70;;;5.20;;
14013;SDS011;49110;52.584;13.408;2023-04-24T01:10:02;7.70;;;5.80;;
14013;SDS011;49110;52.584;13.408;2023-04-24T01:11:03;6.27;;;5.70;;
14013;SDS011;49110;52.584;13.408;2023-04-24T01:12:04;6.13;;;5.53;;
14013;SDS011;49110;52.584;13.408;2023-04-24T01:13:07;7.30;;;6.00;;
14013;SDS011;49110;52.584;13.408;2023-04-24T01:14:08;6.83;;;6.13;;
14013;SDS011;49110;52.584;13.408;2023-04-24T01:15:09;7.30;;;5.83;;
14013;SDS011;49110;52.584;13.408;2023-04-24T01:16:10;6.37;;;5.77;;
14013;SDS011;49110;52.584;13.408;2023-04-24T01:17:10;6.70;;;6.10;;
14013;SDS011;49110;52.584;13.408;2023-04-24T01:18:11;7.30;;;5.50;;
14013;SDS011;49110;52.584;13.408;2023-04-24T01:19:12;6.33;;;5.73;;
14013;SDS011;49110;52.584;13.408;2023-04-24T01:20:14;7.50;;;6.03;;
14013;SDS011;49110;52.584;13.408;2023-04-24T01:21:15;7.70;;;5.90;;
14013;SDS011;49110;52.584;13.408;2023-04-24T01:22:17;6.17;;;5.67;;
14013;SDS011;49110;52.584;13.408;2023-04-24T01:23:18;7.30;;;5.77;;
14013;SDS011;49110;52.584;13.408;2023-04-24T01:24:19;6.50;;;5.77;;
14013;SDS011;49110;52.584;13.408;2023-04-24T01:25:20;6.13;;;5.57;;
14013;SDS011;49110;52.584;13.408;2023-04-24T01:26:20;6.20;;;5.60;;
14013;SDS011;49110;52.584;13.408;2023-04-24T01:27:21;6.20;;;5.53;;
14013;SDS011;49110;52.584;13.408;2023-04-24T01:28:21;6.27;;;5.63;;
14013;SDS011;49110;52.584;13.408;2023-04-24T01:29:22;5.97;;;5.37;;
14013;SDS011;49110;52.584;13.408;2023-04-24T01:30:23;5.67;;;5.20;;
14013;SDS011;49110;52.584;13.408;2023-04-24T01:31:24;6.00;;;5.50;;
14013;SDS011;49110;52.584;13.408;2023-04-24T01:32:25;5.73;;;5.23;;
14013;SDS011;49110;52.584;13.408;2023-04-24T01:33:27;6.53;;;4.97;;
14013;SDS011;49110;52.584;13.408;2023-04-24T01:34:27;5.57;;;5.07;;
14013;SDS011;49110;52.584;13.408;2023-04-24T01:35:28;5.17;;;4.77;;
14013;SDS011;49110;52.584;13.408;2023-04-24T01:36:28;5.57;;;5.00;;
14013;SDS011;49110;52.584;13.408;2023-04-24T01:37:31;5.23;;;4.73;;
14013;SDS011;49110;52.584;13.408;2023-04-24T01:38:33;6.70;;;5.00;;
14013;SDS011;49110;52.584;13.408;2023-04-24T01:39:33;5.17;;;4.30;;
14013;SDS011;49110;52.584;13.408;2023-04-24T01:40:34;4.60;;;4.30;;
14013;SDS011;49110;52.584;13.408;2023-04-24T01:41:35;4.90;;;4.50;;
14013;SDS011;49110;52.584;13.408;2023-04-24T01:42:35;4.40;;;4.10;;
14013;SDS011;49110;52.584;13.408;2023-04-24T01:43:36;4.50;;;4.03;;
14013;SDS011;49110;52.584;13.408;2023-04-24T01:44:36;5.93;;;4.20;;
14013;SDS011;49110;52.584;13.408;2023-04-24T01:45:37;4.40;;;4.10;;
14013;SDS011;49110;52.584;13.408;2023-04-24T01:46:38;4.53;;;4.13;;
14013;SDS011;49110;52.584;13.408;2023-04-24T01:47:38;4.90;;;4.40;;
14013;SDS011;49110;52.584;13.408;2023-04-24T01:48:39;4.70;;;4.30;;
14013;SDS011;49110;52.584;13.408;2023-04-24T01:49:41;4.40;;;4.00;;
14013;SDS011;49110;52.584;13.408;2023-04-24T01:50:41;4.37;;;3.97;;
14013;SDS011;49110;52.584;13.408;2023-04-24T01:51:42;4.27;;;3.93;;
14013;SDS011;49110;52.584;13.408;2023-04-24T01:52:42;7.47;;;4.53;;
14013;SDS011;49110;52.584;13.408;2023-04-24T01:53:43;4.47;;;4.13;;
14013;SDS011;49110;52.584;13.408;2023-04-24T01:54:44;3.93;;;3.73;;
14013;SDS011;49110;52.584;13.408;2023-04-24T01:55:44;4.60;;;4.17;;
14013;SDS011;49110;52.584;13.408;2023-04-24T01:56:45;4.17;;;3.87;;
14013;SDS011;49110;52.584;13.408;2023-04-24T01:57:46;4.87;;;4.47;;
14013;SDS011;49110;52.584;13.408;2023-04-24T01:58:46;4.30;;;4.00;;
14013;SDS011;49110;52.584;13.408;2023-04-24T01:59:47;4.80;;;4.40;;
14013;SDS011;49110;52.584;13.408;2023-04-24T02:00:47;4.20;;;3.90;;
14013;SDS011;49110;52.584;13.408;2023-04-24T02:01:48;4.67;;;4.27;;
14013;SDS011;49110;52.584;13.408;2023-04-24T02:02:48;3.80;;;3.50;;
14013;SDS011;49110;52.584;13.408;2023-04-24T02:03:49;4.20;;;3.80;;
14013;SDS011;49110;52.584;13.408;2023-04-24T02:04:50;4.20;;;3.80;;
14013;SDS011;49110;52.584;13.408;2023-04-24T02:05:51;4.00;;;3.70;;
14013;SDS011;49110;52.584;13.408;2023-04-24T02:06:51;4.57;;;4.27;;
14013;SDS011;49110;52.584;13.408;2023-04-24T02:07:52;4.13;;;3.80;;
14013;SDS011;49110;52.584;13.408;2023-04-24T02:08:52;4.40;;;4.00;;
14013;SDS011;49110;52.584;13.408;2023-04-24T02:09:53;4.30;;;4.00;;
14013;SDS011;49110;52.584;13.408;2023-04-24T02:10:53;4.10;;;3.80;;
14013;SDS011;49110;52.584;13.408;2023-04-24T02:11:54;4.80;;;4.40;;
14013;SDS011;49110;52.584;13.408;2023-04-24T02:12:54;4.80;;;4.40;;
14013;SDS011;49110;52.584;13.408;2023-04-24T02:13:55;4.60;;;4.20;;
14013;SDS011;49110;52.584;13.408;2023-04-24T02:14:56;4.43;;;4.13;;
14013;SDS011;49110;52.584;13.408;2023-04-24T02:15:57;4.60;;;4.20;;
14013;SDS011;49110;52.584;13.408;2023-04-24T02:16:58;4.63;;;4.33;;
14013;SDS011;49110;52.584;13.408;2023-04-24T02:18:00;4.53;;;4.23;;
14013;SDS011;49110;52.584;13.408;2023-04-24T02:19:01;5.00;;;4.50;;
14013;SDS011;49110;52.584;13.408;2023-04-24T02:20:02;5.00;;;4.50;;
14013;SDS011;49110;52.584;13.408;2023-04-24T02:21:04;4.43;;;4.10;;
14013;SDS011;49110;52.584;13.408;2023-04-24T02:22:05;4.83;;;4.30;;
14013;SDS011;49110;52.584;13.408;2023-04-24T02:23:05;4.70;;;4.40;;
14013;SDS011;49110;52.584;13.408;2023-04-24T02:24:06;5.50;;;4.63;;
14013;SDS011;49110;52.584;13.408;2023-04-24T02:25:06;5.37;;;4.87;;
14013;SDS011;49110;52.584;13.408;2023-04-24T02:26:07;4.40;;;4.10;;
14013;SDS011;49110;52.584;13.408;2023-04-24T02:27:08;4.53;;;4.13;;
14013;SDS011;49110;52.584;13.408;2023-04-24T02:28:09;4.50;;;4.20;;
14013;SDS011;49110;52.584;13.408;2023-04-24T02:29:10;4.77;;;4.13;;
14013;SDS011;49110;52.584;13.408;2023-04-24T02:30:10;4.57;;;4.20;;
14013;SDS011;49110;52.584;13.408;2023-04-24T02:31:11;4.60;;;4.30;;
14013;SDS011;49110;52.584;13.408;2023-04-24T02:32:11;4.77;;;4.37;;
14013;SDS011;49110;52.584;13.408;2023-04-24T02:33:12;4.63;;;4.33;;
14013;SDS011;49110;52.584;13.408;2023-04-24T02:34:13;5.33;;;4.70;;
14013;SDS011;49110;52.584;13.408;2023-04-24T02:35:13;4.73;;;4.20;;
14013;SDS011;49110;52.584;13.408;2023-04-24T02:36:14;4.97;;;4.50;;
14013;SDS011;49110;52.584;13.408;2023-04-24T02:37:14;4.90;;;4.40;;
14013;SDS011;49110;52.584;13.408;2023-04-24T02:38:15;4.77;;;4.40;;
14013;SDS011;49110;52.584;13.408;2023-04-24T02:39:15;6.57;;;4.80;;
14013;SDS011;49110;52.584;13.408;2023-04-24T02:40:18;4.83;;;4.50;;
14013;SDS011;49110;52.584;13.408;2023-04-24T02:41:19;4.30;;;4.00;;
14013;SDS011;49110;52.584;13.408;2023-04-24T02:42:19;5.57;;;4.80;;
14013;SDS011;49110;52.584;13.408;2023-04-24T02:43:20;5.33;;;4.90;;
14013;SDS011;49110;52.584;13.408;2023-04-24T02:44:21;5.00;;;4.60;;
14013;SDS011;49110;52.584;13.408;2023-04-24T02:45:22;5.30;;;4.80;;
14013;SDS011;49110;52.584;13.408;2023-04-24T02:46:23;5.63;;;4.80;;
14013;SDS011;49110;52.584;13.408;2023-04-24T02:47:23;4.93;;;4.33;;
14013;SDS011;49110;52.584;13.408;2023-04-24T02:48:23;4.87;;;4.47;;
14013;SDS011;49110;52.584;13.408;2023-04-24T02:49:24;5.13;;;4.73;;
14013;SDS011;49110;52.584;13.408;2023-04-24T02:50:25;4.67;;;4.37;;
14013;SDS011;49110;52.584;13.408;2023-04-24T02:51:26;5.40;;;4.90;;
14013;SDS011;49110;52.584;13.408;2023-04-24T02:52:26;5.57;;;5.07;;
14013;SDS011;49110;52.584;13.408;2023-04-24T02:53:27;5.23;;;4.83;;
14013;SDS011;49110;52.584;13.408;2023-04-24T02:54:29;4.97;;;4.50;;
14013;SDS011;49110;52.584;13.408;2023-04-24T02:55:30;5.40;;;4.90;;
14013;SDS011;49110;52.584;13.408;2023-04-24T02:56:30;5.40;;;4.97;;
14013;SDS011;49110;52.584;13.408;2023-04-24T02:57:31;5.70;;;4.90;;
14013;SDS011;49110;52.584;13.408;2023-04-24T02:58:31;5.43;;;4.97;;
14013;SDS011;49110;52.584;13.408;2023-04-24T02:59:32;5.27;;;4.87;;
14013;SDS011;49110;52.584;13.408;2023-04-24T03:00:33;5.73;;;5.10;;
14013;SDS011;49110;52.584;13.408;2023-04-24T03:01:34;5.63;;;5.13;;
14013;SDS011;49110;52.584;13.408;2023-04-24T03:02:35;5.53;;;5.00;;
14013;SDS011;49110;52.584;13.408;2023-04-24T03:03:36;6.30;;;4.83;;
14013;SDS011;49110;52.584;13.408;2023-04-24T03:04:37;5.30;;;4.83;;
14013;SDS011;49110;52.584;13.408;2023-04-24T03:05:37;6.90;;;4.90;;
14013;SDS011;49110;52.584;13.408;2023-04-24T03:06:38;5.47;;;4.97;;
14013;SDS011;49110;52.584;13.408;2023-04-24T03:07:38;7.40;;;5.40;;
14013;SDS011;49110;52.584;13.408;2023-04-24T03:08:39;5.40;;;5.00;;
14013;SDS011;49110;52.584;13.408;2023-04-24T03:09:40;5.30;;;4.80;;
14013;SDS011;49110;52.584;13.408;2023-04-24T03:10:40;5.37;;;4.87;;
14013;SDS011;49110;52.584;13.408;2023-04-24T03:11:41;5.13;;;4.70;;
14013;SDS011;49110;52.584;13.408;2023-04-24T03:12:41;5.93;;;5.33;;
14013;SDS011;49110;52.584;13.408;2023-04-24T03:13:42;5.30;;;4.90;;
14013;SDS011;49110;52.584;13.408;2023-04-24T03:14:42;5.67;;;4.93;;
14013;SDS011;49110;52.584;13.408;2023-04-24T03:15:42;7.60;;;5.37;;
14013;SDS011;49110;52.584;13.408;2023-04-24T03:16:43;6.50;;;5.27;;
14013;SDS011;49110;52.584;13.408;2023-04-24T03:17:44;5.97;;;5.20;;
14013;SDS011;49110;52.584;13.408;2023-04-24T03:18:45;7.67;;;5.13;;
14013;SDS011;49110;52.584;13.408;2023-04-24T03:19:45;5.73;;;5.23;;
14013;SDS011;49110;52.584;13.408;2023-04-24T03:20:46;6.13;;;5.20;;
14013;SDS011;49110;52.584;13.408;2023-04-24T03:21:47;5.50;;;5.00;;
14013;SDS011;49110;52.584;13.408;2023-04-24T03:22:48;6.60;;;5.00;;
14013;SDS011;49110;52.584;13.408;2023-04-24T03:23:48;6.57;;;5.57;;
14013;SDS011;49110;52.584;13.408;2023-04-24T03:24:49;5.60;;;5.20;;
14013;SDS011;49110;52.584;13.408;2023-04-24T03:25:49;6.00;;;5.40;;
14013;SDS011;49110;52.584;13.408;2023-04-24T03:26:50;6.03;;;5.17;;
14013;SDS011;49110;52.584;13.408;2023-04-24T03:27:50;5.83;;;5.07;;
14013;SDS011;49110;52.584;13.408;2023-04-24T03:28:50;5.53;;;5.10;;
14013;SDS011;49110;52.584;13.408;2023-04-24T03:29:51;6.43;;;4.83;;
14013;SDS011;49110;52.584;13.408;2023-04-24T03:30:55;5.67;;;5.17;;
14013;SDS011;49110;52.584;13.408;2023-04-24T03:31:55;5.50;;;5.10;;
14013;SDS011;49110;52.584;13.408;2023-04-24T03:32:56;6.47;;;4.90;;
14013;SDS011;49110;52.584;13.408;2023-04-24T03:33:56;5.37;;;4.87;;
14013;SDS011;49110;52.584;13.408;2023-04-24T03:34:57;5.23;;;4.77;;
14013;SDS011;49110;52.584;13.408;2023-04-24T03:35:57;5.90;;;5.40;;
14013;SDS011;49110;52.584;13.408;2023-04-24T03:36:58;5.43;;;5.03;;
14013;SDS011;49110;52.584;13.408;2023-04-24T03:37:58;6.30;;;5.70;;
14013;SDS011;49110;52.584;13.408;2023-04-24T03:38:59;5.80;;;5.30;;
14013;SDS011;49110;52.584;13.408;2023-04-24T03:39:59;5.60;;;5.20;;
14013;SDS011;49110;52.584;13.408;2023-04-24T03:41:01;5.30;;;4.90;;
14013;SDS011;49110;52.584;13.408;2023-04-24T03:42:01;5.83;;;5.27;;
14013;SDS011;49110;52.584;13.408;2023-04-24T03:43:02;5.40;;;5.00;;
14013;SDS011;49110;52.584;13.408;2023-04-24T03:44:03;5.53;;;5.03;;
14013;SDS011;49110;52.584;13.408;2023-04-24T03:45:03;6.70;;;5.30;;
14013;SDS011;49110;52.584;13.408;2023-04-24T03:46:04;5.30;;;4.80;;
14013;SDS011;49110;52.584;13.408;2023-04-24T03:47:05;5.57;;;5.07;;
14013;SDS011;49110;52.584;13.408;2023-04-24T03:48:06;5.10;;;4.77;;
14013;SDS011;49110;52.584;13.408;2023-04-24T03:49:07;5.43;;;5.00;;
14013;SDS011;49110;52.584;13.408;2023-04-24T03:50:08;6.27;;;5.10;;
14013;SDS011;49110;52.584;13.408;2023-04-24T03:51:09;5.20;;;4.80;;
14013;SDS011;49110;52.584;13.408;2023-04-24T03:52:09;5.30;;;4.90;;
14013;SDS011;49110;52.584;13.408;2023-04-24T03:53:10;6.30;;;5.70;;
14013;SDS011;49110;52.584;13.408;2023-04-24T03:54:10;5.20;;;4.80;;
14013;SDS011;49110;52.584;13.408;2023-04-24T03:55:11;5.57;;;5.07;;
14013;SDS011;49110;52.584;13.408;2023-04-24T03:56:12;5.33;;;4.90;;
14013;SDS011;49110;52.584;13.408;2023-04-24T03:57:13;6.00;;;5.23;;
14013;SDS011;49110;52.584;13.408;2023-04-24T03:58:13;5.53;;;5.00;;
14013;SDS011;49110;52.584;13.408;2023-04-24T03:59:14;9.13;;;5.47;;
14013;SDS011;49110;52.584;13.408;2023-04-24T04:00:15;5.73;;;4.70;;
14013;SDS011;49110;52.584;13.408;2023-04-24T04:01:15;5.50;;;5.00;;
14013;SDS011;49110;52.584;13.408;2023-04-24T04:02:16;5.87;;;5.47;;
14013;SDS011;49110;52.584;13.408;2023-04-24T04:03:16;5.57;;;5.10;;
14013;SDS011;49110;52.584;13.408;2023-04-24T04:04:17;6.07;;;5.47;;
14013;SDS011;49110;52.584;13.408;2023-04-24T04:05:17;6.53;;;5.23;;
14013;SDS011;49110;52.584;13.408;2023-04-24T04:06:18;5.87;;;5.37;;
14013;SDS011;49110;52.584;13.408;2023-04-24T04:07:19;5.50;;;5.10;;
14013;SDS011;49110;52.584;13.408;2023-04-24T04:08:19;6.03;;;5.43;;
14013;SDS011;49110;52.584;13.408;2023-04-24T04:09:20;6.07;;;4.93;;
14013;SDS011;49110;52.584;13.408;2023-04-24T04:10:21;5.60;;;5.20;;
14013;SDS011;49110;52.584;13.408;2023-04-24T04:11:21;5.60;;;5.10;;
14013;SDS011;49110;52.584;13.408;2023-04-24T04:12:22;5.53;;;5.03;;
14013;SDS011;49110;52.584;13.408;2023-04-24T04:13:22;6.70;;;4.93;;
14013;SDS011;49110;52.584;13.408;2023-04-24T04:14:23;4.90;;;4.50;;
14013;SDS011;49110;52.584;13.408;2023-04-24T04:15:23;5.57;;;5.10;;
14013;SDS011;49110;52.584;13.408;2023-04-24T04:16:24;6.83;;;5.07;;
14013;SDS011;49110;52.584;13.408;2023-04-24T04:17:25;5.60;;;5.00;;
14013;SDS011;49110;52.584;13.408;2023-04-24T04:18:25;5.47;;;5.03;;
14013;SDS011;49110;52.584;13.408;2023-04-24T04:19:26;6.53;;;5.13;;
14013;SDS011;49110;52.584;13.408;2023-04-24T04:20:26;5.53;;;5.03;;
14013;SDS011;49110;52.584;13.408;2023-04-24T04:21:27;9.70;;;5.23;;
14013;SDS011;49110;52.584;13.408;2023-04-24T04:22:27;6.10;;;5.57;;
14013;SDS011;49110;52.584;13.408;2023-04-24T04:23:28;5.93;;;5.40;;
14013;SDS011;49110;52.584;13.408;2023-04-24T04:24:28;6.43;;;5.30;;
14013;SDS011;49110;52.584;13.408;2023-04-24T04:25:29;4.83;;;4.33;;
14013;SDS011;49110;52.584;13.408;2023-04-24T04:26:29;5.20;;;4.80;;
14013;SDS011;49110;52.584;13.408;2023-04-24T04:27:32;5.40;;;4.90;;
14013;SDS011;49110;52.584;13.408;2023-04-24T04:28:33;5.40;;;5.00;;
14013;SDS011;49110;52.584;13.408;2023-04-24T04:29:34;5.03;;;4.57;;
14013;SDS011;49110;52.584;13.408;2023-04-24T04:30:35;10.23;;;4.97;;
14013;SDS011;49110;52.584;13.408;2023-04-24T04:31:38;5.47;;;4.83;;
14013;SDS011;49110;52.584;13.408;2023-04-24T04:32:38;5.13;;;4.67;;
14013;SDS011;49110;52.584;13.408;2023-04-24T04:33:39;6.70;;;5.10;;
14013;SDS011;49110;52.584;13.408;2023-04-24T04:34:39;5.47;;;4.90;;
14013;SDS011;49110;52.584;13.408;2023-04-24T04:35:40;5.67;;;4.97;;
14013;SDS011;49110;52.584;13.408;2023-04-24T04:36:41;5.43;;;5.00;;
14013;SDS011;49110;52.584;13.408;2023-04-24T04:37:42;7.07;;;4.90;;
14013;SDS011;49110;52.584;13.408;2023-04-24T04:38:43;5.60;;;4.67;;
14013;SDS011;49110;52.584;13.408;2023-04-24T04:39:44;5.67;;;5.07;;
14013;SDS011;49110;52.584;13.408;2023-04-24T04:40:45;7.27;;;5.00;;
14013;SDS011;49110;52.584;13.408;2023-04-24T04:41:45;5.03;;;4.40;;
14013;SDS011;49110;52.584;13.408;2023-04-24T04:42:49;5.73;;;5.13;;
14013;SDS011;49110;52.584;13.408;2023-04-24T04:43:52;6.87;;;4.67;;
14013;SDS011;49110;52.584;13.408;2023-04-24T04:44:53;5.30;;;4.80;;
14013;SDS011;49110;52.584;13.408;2023-04-24T04:45:53;4.93;;;4.50;;
14013;SDS011;49110;52.584;13.408;2023-04-24T04:46:55;6.07;;;4.50;;
14013;SDS011;49110;52.584;13.408;2023-04-24T04:47:56;7.27;;;4.70;;
14013;SDS011;49110;52.584;13.408;2023-04-24T04:48:57;4.70;;;4.30;;
14013;SDS011;49110;52.584;13.408;2023-04-24T04:49:57;7.03;;;4.83;;
14013;SDS011;49110;52.584;13.408;2023-04-24T04:50:58;5.63;;;5.00;;
14013;SDS011;49110;52.584;13.408;2023-04-24T04:51:58;7.47;;;5.50;;
14013;SDS011;49110;52.584;13.408;2023-04-24T04:52:59;9.20;;;5.50;;
14013;SDS011;49110;52.584;13.408;2023-04-24T04:53:59;5.70;;;5.20;;
14013;SDS011;49110;52.584;13.408;2023-04-24T04:55:00;5.27;;;4.83;;
14013;SDS011;49110;52.584;13.408;2023-04-24T04:56:00;5.43;;;4.93;;
14013;SDS011;49110;52.584;13.408;2023-04-24T04:57:01;5.00;;;4.60;;
14013;SDS011;49110;52.584;13.408;2023-04-24T04:58:02;4.43;;;4.13;;
14013;SDS011;49110;52.584;13.408;2023-04-24T04:59:02;5.73;;;4.43;;
14013;SDS011;49110;52.584;13.408;2023-04-24T05:00:03;4.97;;;4.53;;
14013;SDS011;49110;52.584;13.408;2023-04-24T05:01:04;4.30;;;4.00;;
14013;SDS011;49110;52.584;13.408;2023-04-24T05:02:04;4.43;;;4.03;;
14013;SDS011;49110;52.584;13.408;2023-04-24T05:03:05;4.33;;;3.93;;
14013;SDS011;49110;52.584;13.408;2023-04-24T05:04:05;4.83;;;4.50;;
14013;SDS011;49110;52.584;13.408;2023-04-24T05:05:06;4.23;;;3.83;;
14013;SDS011;49110;52.584;13.408;2023-04-24T05:06:07;4.47;;;4.07;;
14013;SDS011;49110;52.584;13.408;2023-04-24T05:07:08;4.13;;;3.83;;
14013;SDS011;49110;52.584;13.408;2023-04-24T05:08:08;4.70;;;3.97;;
14013;SDS011;49110;52.584;13.408;2023-04-24T05:09:09;6.67;;;3.83;;
14013;SDS011;49110;52.584;13.408;2023-04-24T05:10:09;4.03;;;3.73;;
14013;SDS011;49110;52.584;13.408;2023-04-24T05:11:10;6.47;;;4.00;;
14013;SDS011;49110;52.584;13.408;2023-04-24T05:12:10;5.00;;;3.73;;
14013;SDS011;49110;52.584;13.408;2023-04-24T05:13:11;5.10;;;3.77;;
14013;SDS011;49110;52.584;13.408;2023-04-24T05:14:11;5.83;;;4.03;;
14013;SDS011;49110;52.584;13.408;2023-04-24T05:15:12;4.53;;;4.13;;
14013;SDS011;49110;52.584;13.408;2023-04-24T05:16:13;4.20;;;3.80;;
14013;SDS011;49110;52.584;13.408;2023-04-24T05:17:13;6.20;;;4.10;;
14013;SDS011;49110;52.584;13.408;2023-04-24T05:18:14;4.97;;;3.90;;
14013;SDS011;49110;52.584;13.408;2023-04-24T05:19:15;4.30;;;3.90;;
14013;SDS011;49110;52.584;13.408;2023-04-24T05:20:15;4.20;;;3.90;;
14013;SDS011;49110;52.584;13.408;2023-04-24T05:21:17;4.23;;;3.70;;
14013;SDS011;49110;52.584;13.408;2023-04-24T05:22:18;5.50;;;3.87;;
14013;SDS011;49110;52.584;13.408;2023-04-24T05:23:20;5.23;;;3.97;;
14013;SDS011;49110;52.584;13.408;2023-04-24T05:24:21;4.87;;;3.70;;
14013;SDS011;49110;52.584;13.408;2023-04-24T05:25:21;6.73;;;4.40;;
14013;SDS011;49110;52.584;13.408;2023-04-24T05:26:22;3.60;;;3.40;;
14013;SDS011;49110;52.584;13.408;2023-04-24T05:27:22;4.10;;;3.80;;
14013;SDS011;49110;52.584;13.408;2023-04-24T05:28:24;4.37;;;3.97;;
14013;SDS011;49110;52.584;13.408;2023-04-24T05:29:28;4.50;;;3.90;;
14013;SDS011;49110;52.584;13.408;2023-04-24T05:30:30;4.40;;;4.10;;
14013;SDS011;49110;52.584;13.408;2023-04-24T05:31:31;4.37;;;3.40;;
14013;SDS011;49110;52.584;13.408;2023-04-24T05:32:31;4.30;;;3.40;;
14013;SDS011;49110;52.584;13.408;2023-04-24T05:33:32;4.63;;;3.57;;
14013;SDS011;49110;52.584;13.408;2023-04-24T05:34:32;4.10;;;3.80;;
14013;SDS011;49110;52.584;13.408;2023-04-24T05:35:33;5.67;;;3.47;;
14013;SDS011;49110;52.584;13.408;2023-04-24T05:36:33;6.03;;;3.53;;
14013;SDS011;49110;52.584;13.408;2023-04-24T05:37:34;3.63;;;3.33;;
14013;SDS011;49110;52.584;13.408;2023-04-24T05:38:34;3.57;;;3.27;;
14013;SDS011;49110;52.584;13.408;2023-04-24T05:39:35;5.77;;;3.93;;
14013;SDS011;49110;52.584;13.408;2023-04-24T05:40:36;3.40;;;3.10;;
14013;SDS011;49110;52.584;13.408;2023-04-24T05:41:36;4.13;;;3.40;;
14013;SDS011;49110;52.584;13.408;2023-04-24T05:42:37;3.50;;;3.20;;
14013;SDS011;49110;52.584;13.408;2023-04-24T05:43:38;5.80;;;3.53;;
14013;SDS011;49110;52.584;13.408;2023-04-24T05:44:38;5.57;;;3.30;;
14013;SDS011;49110;52.584;13.408;2023-04-24T05:45:38;4.77;;;4.00;;
14013;SDS011;49110;52.584;13.408;2023-04-24T05:46:39;4.97;;;3.90;;
14013;SDS011;49110;52.584;13.408;2023-04-24T05:47:40;4.40;;;4.00;;
14013;SDS011;49110;52.584;13.408;2023-04-24T05:48:40;6.00;;;4.57;;
14013;SDS011;49110;52.584;13.408;2023-04-24T05:49:41;3.73;;;3.43;;
14013;SDS011;49110;52.584;13.408;2023-04-24T05:50:41;6.13;;;3.33;;
14013;SDS011;49110;52.584;13.408;2023-04-24T05:51:42;4.23;;;3.00;;
14013;SDS011;49110;52.584;13.408;2023-04-24T05:52:42;3.97;;;3.27;;
14013;SDS011;49110;52.584;13.408;2023-04-24T05:53:43;3.67;;;3.37;;
14013;SDS011;49110;52.584;13.408;2023-04-24T05:54:43;3.23;;;2.93;;
14013;SDS011;49110;52.584;13.408;2023-04-24T05:55:44;3.27;;;2.97;;
14013;SDS011;49110;52.584;13.408;2023-04-24T05:56:45;3.53;;;3.00;;
14013;SDS011;49110;52.584;13.408;2023-04-24T05:57:46;4.60;;;3.23;;
14013;SDS011;49110;52.584;13.408;2023-04-24T05:58:47;3.87;;;3.40;;
14013;SDS011;49110;52.584;13.408;2023-04-24T05:59:47;3.50;;;3.20;;
14013;SDS011;49110;52.584;13.408;2023-04-24T06:00:48;4.93;;;2.97;;